Airfield :
LOGIN :

Register | Disclaimer

   EN    FR    IT 

 










Legend :    VFR   Marginal VFR   IFR   Intensive IFR   Very Intensive IFR
Visi :
Ceiling :
>= 8 km
>= 3000ft
5 to 8 km
1000 to 3000 ft
1500m to 5 km
500 to 1000 ft
800 to 1500m
200 to 500 ft
< 800m
< 200 ft
Symbols :   Thunderstorms  Fog  Heavy snow  Heavy precipitations  Wind > 20 kt
SIGMETs :     Misc.  Thunderstorms  Icing  Turbulence  Mountain Waves  Volcanic Ashes






- Airport Elevation : 1005 ft
- IATA code : ENF


EFET - Enontekio

CURRENT METAR :
  • 190550Z AUTO 06003KT 020V100 CAVOK 18/14 Q1014

EXPIRED METARs :
  • 190520Z AUTO 06004KT 030V100 CAVOK 18/14 Q1014
  • 190450Z AUTO 07003KT 030V140 CAVOK 18/15 Q1014
  • 190420Z AUTO VRB02KT CAVOK 18/15 Q1014
  • 190350Z AUTO VRB01KT CAVOK 17/15 Q1014
  • 190320Z AUTO VRB02KT CAVOK 17/15 Q1014
  • 190250Z AUTO 06003KT 030V090 CAVOK 17/15 Q1014
  • 190220Z AUTO 06003KT 030V090 CAVOK 17/15 Q1014
  • 190150Z AUTO 05003KT CAVOK 17/15 Q1014
  • 190120Z AUTO VRB02KT CAVOK 16/15 Q1014

Expired Forecast.



MET'MAP, your aeronautical weather chart ! - Copyright ORBIFLY December 2007 - Disclaimer

ORBIFLY MET'MAP TEAM :

Programming & Development : Alexandra Zaïnal
Original concept : Baudouin d'Aumeries
Technical & hardware support : Manuel Goepfert
Assistance : Marc-Olivier Méhu




SOURCES & CREDITS :

   NOAA